createdAt,value
2017-10-08T00:00:27.417Z,10.15
2017-10-08T00:01:27.389Z,10.16
2017-10-08T00:02:27.369Z,10.20
2017-10-08T00:03:27.351Z,10.16
2017-10-08T00:04:27.337Z,10.16
2017-10-08T00:05:27.309Z,10.17
2017-10-08T00:06:27.289Z,10.23
2017-10-08T00:07:27.263Z,10.23
2017-10-08T00:08:27.243Z,10.19
2017-10-08T00:09:27.228Z,10.23
2017-10-08T00:10:27.204Z,10.19
2017-10-08T00:11:27.183Z,10.19
2017-10-08T00:12:27.160Z,10.23
2017-10-08T00:13:27.145Z,10.31
2017-10-08T00:14:27.125Z,10.23
2017-10-08T00:15:27.107Z,10.26
2017-10-08T00:16:27.080Z,10.30
2017-10-08T00:17:27.061Z,10.25
2017-10-08T00:18:27.043Z,10.28
2017-10-08T00:19:27.021Z,10.33
2017-10-08T00:20:27.004Z,10.37
2017-10-08T00:21:26.987Z,10.31
2017-10-08T00:22:26.974Z,10.38
2017-10-08T00:23:26.937Z,10.40
2017-10-08T00:24:26.917Z,10.42
2017-10-08T00:25:26.899Z,10.40
2017-10-08T00:26:26.879Z,10.41
2017-10-08T00:27:26.862Z,10.33
2017-10-08T00:28:26.838Z,10.40
2017-10-08T00:29:26.838Z,10.38
2017-10-08T00:30:26.799Z,10.35
2017-10-08T00:31:26.779Z,10.46
2017-10-08T00:32:26.759Z,10.35
2017-10-08T00:33:26.742Z,10.41
2017-10-08T00:34:26.726Z,10.42
2017-10-08T00:35:26.698Z,10.38
2017-10-08T00:36:26.676Z,10.37
2017-10-08T00:37:26.655Z,10.31
2017-10-08T00:38:26.653Z,10.34
2017-10-08T00:39:26.621Z,10.37
2017-10-08T00:40:26.590Z,10.31
2017-10-08T00:41:26.574Z,10.33
2017-10-08T00:42:26.565Z,10.30
2017-10-08T00:43:26.535Z,10.34
2017-10-08T00:44:26.547Z,10.26
2017-10-08T00:45:26.491Z,10.28
2017-10-08T00:46:26.471Z,10.28
2017-10-08T00:47:26.452Z,10.20
2017-10-08T00:48:26.428Z,10.23
2017-10-08T00:49:26.411Z,10.28
2017-10-08T00:50:26.393Z,10.28
2017-10-08T00:51:26.373Z,10.33
2017-10-08T00:52:26.352Z,10.33
2017-10-08T00:53:26.332Z,10.37
2017-10-08T00:54:26.316Z,10.31
2017-10-08T00:55:26.297Z,10.30
2017-10-08T00:56:26.270Z,10.33
2017-10-08T00:57:26.251Z,10.34
2017-10-08T00:58:26.232Z,10.35
2017-10-08T00:59:26.227Z,10.31
2017-10-08T01:00:26.196Z,10.31
2017-10-08T01:01:26.174Z,10.33
2017-10-08T01:02:26.146Z,10.33
2017-10-08T01:03:26.130Z,10.31
2017-10-08T01:04:26.099Z,10.30
2017-10-08T01:05:26.090Z,10.26
2017-10-08T01:06:26.085Z,10.37
2017-10-08T01:07:26.045Z,10.37
2017-10-08T01:08:26.023Z,10.40
2017-10-08T01:09:26.024Z,10.38
2017-10-08T01:10:25.982Z,10.38
2017-10-08T01:11:25.962Z,10.40
2017-10-08T01:12:25.946Z,10.44
2017-10-08T01:13:25.927Z,10.44
2017-10-08T01:14:25.914Z,10.40
2017-10-08T01:15:25.902Z,10.37
2017-10-08T01:16:25.867Z,10.37
2017-10-08T01:17:25.841Z,10.38
2017-10-08T01:18:25.820Z,10.42
2017-10-08T01:19:25.801Z,10.46
2017-10-08T01:20:25.782Z,10.42
2017-10-08T01:21:25.759Z,10.37
2017-10-08T01:22:25.738Z,10.35
2017-10-08T01:23:25.725Z,10.38
2017-10-08T01:24:25.702Z,10.44
2017-10-08T01:25:25.676Z,10.54
2017-10-08T01:26:25.663Z,10.51
2017-10-08T01:27:25.648Z,10.41
2017-10-08T01:28:25.623Z,10.37
2017-10-08T01:29:25.594Z,10.42
2017-10-08T01:30:25.578Z,10.48
2017-10-08T01:31:25.557Z,10.40
2017-10-08T01:32:25.538Z,10.38
2017-10-08T01:33:25.521Z,10.49
2017-10-08T01:34:25.498Z,10.40
2017-10-08T01:35:25.475Z,10.38
2017-10-08T01:36:25.459Z,10.40
2017-10-08T01:37:25.440Z,10.54
2017-10-08T01:38:25.413Z,10.37
2017-10-08T01:39:25.400Z,10.42
2017-10-08T01:40:25.373Z,10.49
2017-10-08T01:41:25.360Z,10.53
2017-10-08T01:42:25.334Z,10.41
2017-10-08T01:43:25.313Z,10.54
2017-10-08T01:44:25.296Z,10.51
2017-10-08T01:45:25.275Z,10.57
2017-10-08T01:46:25.255Z,10.59
2017-10-08T01:47:25.233Z,10.59
2017-10-08T01:48:25.213Z,10.57
2017-10-08T01:49:25.207Z,10.60
2017-10-08T01:50:25.173Z,10.72
2017-10-08T01:51:25.156Z,10.68
2017-10-08T01:52:25.135Z,10.63
2017-10-08T01:53:25.116Z,10.63
2017-10-08T01:54:25.098Z,10.69
2017-10-08T01:55:25.068Z,10.54
2017-10-08T01:56:25.050Z,10.57
2017-10-08T01:57:25.029Z,10.67
2017-10-08T01:58:25.014Z,10.63
2017-10-08T01:59:24.996Z,10.60
2017-10-08T02:00:24.973Z,10.56
2017-10-08T02:01:24.951Z,10.57
2017-10-08T02:02:24.932Z,10.57
2017-10-08T02:03:24.916Z,10.57
2017-10-08T02:04:24.897Z,10.57
2017-10-08T02:05:24.872Z,10.54
2017-10-08T02:06:24.851Z,10.54
2017-10-08T02:07:24.830Z,10.54
2017-10-08T02:08:24.808Z,10.53
2017-10-08T02:09:24.791Z,10.53
2017-10-08T02:10:24.769Z,10.60
2017-10-08T02:11:24.764Z,10.60
2017-10-08T02:12:24.726Z,10.53
2017-10-08T02:13:24.708Z,10.53
2017-10-08T02:14:24.692Z,10.61
2017-10-08T02:15:24.670Z,10.56
2017-10-08T02:16:24.769Z,10.57
2017-10-08T02:17:24.626Z,10.63
2017-10-08T02:18:24.608Z,10.57
2017-10-08T02:19:24.584Z,10.64
2017-10-08T02:20:24.571Z,10.60
2017-10-08T02:21:24.548Z,10.61
2017-10-08T02:22:24.525Z,10.60
2017-10-08T02:23:24.510Z,10.64
2017-10-08T02:24:24.487Z,10.61
2017-10-08T02:25:24.472Z,10.53
2017-10-08T02:26:24.453Z,10.56
2017-10-08T02:27:24.430Z,10.56
2017-10-08T02:28:24.407Z,10.51
2017-10-08T02:29:24.386Z,10.54
2017-10-08T02:30:24.380Z,10.71
2017-10-08T02:31:24.344Z,10.57
2017-10-08T02:32:24.322Z,10.59
2017-10-08T02:33:24.303Z,10.63
2017-10-08T02:34:24.283Z,10.61
2017-10-08T02:35:24.266Z,10.63
2017-10-08T02:36:24.243Z,10.54
2017-10-08T02:37:24.224Z,10.56
2017-10-08T02:38:24.203Z,10.51
2017-10-08T02:39:24.189Z,10.56
2017-10-08T02:40:24.162Z,10.59
2017-10-08T02:41:24.153Z,10.64
2017-10-08T02:42:24.130Z,10.53
2017-10-08T02:43:24.115Z,10.51
2017-10-08T02:44:24.081Z,10.51
2017-10-08T02:45:24.069Z,10.53
2017-10-08T02:46:24.040Z,10.63
2017-10-08T02:47:24.027Z,10.60
2017-10-08T02:48:24.015Z,10.64
2017-10-08T02:49:23.981Z,10.63
2017-10-08T02:50:23.959Z,10.68
2017-10-08T02:51:23.944Z,10.69
2017-10-08T02:52:23.917Z,10.69
2017-10-08T02:53:23.903Z,10.69
2017-10-08T02:54:23.889Z,10.72
2017-10-08T02:55:23.861Z,10.71
2017-10-08T02:56:23.849Z,10.72
2017-10-08T02:57:23.820Z,10.72
2017-10-08T02:58:23.803Z,10.71
2017-10-08T02:59:23.778Z,10.69
2017-10-08T03:00:23.777Z,10.75
2017-10-08T03:01:23.742Z,10.75
2017-10-08T03:02:23.722Z,10.68
2017-10-08T03:03:23.695Z,10.68
2017-10-08T03:04:23.687Z,10.61
2017-10-08T03:05:23.661Z,10.68
2017-10-08T03:06:23.637Z,10.68
2017-10-08T03:07:23.620Z,10.60
2017-10-08T03:08:23.606Z,10.60
2017-10-08T03:09:23.577Z,10.53
2017-10-08T03:10:23.561Z,10.56
2017-10-08T03:11:23.543Z,10.56
2017-10-08T03:12:23.516Z,10.49
2017-10-08T03:13:23.497Z,10.53
2017-10-08T03:14:23.478Z,10.49
2017-10-08T03:15:23.464Z,10.48
2017-10-08T03:16:23.437Z,10.46
2017-10-08T03:17:23.418Z,10.42
2017-10-08T03:18:23.395Z,10.40
2017-10-08T03:19:23.387Z,10.28
2017-10-08T03:20:23.355Z,10.26
2017-10-08T03:21:23.334Z,10.23
2017-10-08T03:22:23.316Z,10.20
2017-10-08T03:23:23.300Z,10.23
2017-10-08T03:24:23.278Z,10.13
2017-10-08T03:25:23.255Z,10.15
2017-10-08T03:26:23.239Z,10.10
2017-10-08T03:27:23.216Z,10.02
2017-10-08T03:28:23.198Z,10.05
2017-10-08T03:29:23.184Z,9.99
2017-10-08T03:30:23.159Z,9.99
2017-10-08T03:31:23.137Z,9.87
2017-10-08T03:32:23.108Z,9.80
2017-10-08T03:33:23.094Z,9.87
2017-10-08T03:34:23.076Z,9.73
2017-10-08T03:35:23.059Z,9.76
2017-10-08T03:36:23.036Z,9.66
2017-10-08T03:37:23.015Z,9.62
2017-10-08T03:38:23.008Z,9.55
2017-10-08T03:39:22.975Z,9.64
2017-10-08T03:40:22.948Z,9.66
2017-10-08T03:41:22.933Z,9.62
2017-10-08T03:42:22.916Z,9.64
2017-10-08T03:43:22.889Z,9.58
2017-10-08T03:44:22.871Z,9.61
2017-10-08T03:45:22.847Z,9.58
2017-10-08T03:46:22.832Z,9.59
2017-10-08T03:47:22.809Z,9.59
2017-10-08T03:48:22.786Z,9.56
2017-10-08T03:49:22.774Z,9.48
2017-10-08T03:50:22.751Z,9.59
2017-10-08T03:51:22.726Z,9.62
2017-10-08T03:52:22.708Z,9.66
2017-10-08T03:53:22.691Z,9.68
2017-10-08T03:54:22.668Z,9.68
2017-10-08T03:55:22.645Z,9.62
2017-10-08T03:56:22.622Z,9.61
2017-10-08T03:57:22.614Z,9.59
2017-10-08T03:58:22.584Z,9.64
2017-10-08T03:59:22.564Z,9.58
2017-10-08T04:00:22.539Z,9.59
2017-10-08T04:01:22.522Z,9.55
2017-10-08T04:02:22.504Z,9.48
2017-10-08T04:03:22.486Z,9.51
2017-10-08T04:04:22.461Z,9.48
2017-10-08T04:05:22.440Z,9.55
2017-10-08T04:06:22.417Z,9.58
2017-10-08T04:07:22.401Z,9.58
2017-10-08T04:08:22.374Z,9.62
2017-10-08T04:09:22.357Z,9.59
2017-10-08T04:10:22.342Z,9.64
2017-10-08T04:11:22.329Z,9.61
2017-10-08T04:12:22.298Z,9.54
2017-10-08T04:13:22.281Z,9.58
2017-10-08T04:14:22.262Z,9.50
2017-10-08T04:15:22.239Z,9.56
2017-10-08T04:16:22.215Z,9.44
2017-10-08T04:17:22.189Z,9.40
2017-10-08T04:18:22.174Z,9.44
2017-10-08T04:19:22.160Z,9.41
2017-10-08T04:20:22.134Z,9.29
2017-10-08T04:21:22.114Z,9.29
2017-10-08T04:22:22.092Z,9.28
2017-10-08T04:23:22.066Z,9.21
2017-10-08T04:24:22.052Z,9.14
2017-10-08T04:25:22.031Z,9.08
2017-10-08T04:26:22.011Z,9.06
2017-10-08T04:27:21.989Z,8.94
2017-10-08T04:28:21.974Z,8.95
2017-10-08T04:29:21.952Z,8.91
2017-10-08T04:30:21.930Z,8.97
2017-10-08T04:31:21.912Z,8.91
2017-10-08T04:32:21.886Z,8.97
2017-10-08T04:33:21.862Z,8.91
2017-10-08T04:34:21.850Z,8.99
2017-10-08T04:35:21.828Z,9.00
2017-10-08T04:36:21.806Z,8.99
2017-10-08T04:37:21.784Z,8.94
2017-10-08T04:38:21.768Z,8.92
2017-10-08T04:39:21.744Z,9.02
2017-10-08T04:40:21.718Z,8.91
2017-10-08T04:41:21.700Z,9.02
2017-10-08T04:42:21.680Z,9.02
2017-10-08T04:43:21.661Z,9.06
2017-10-08T04:44:21.646Z,9.10
2017-10-08T04:45:21.633Z,9.08
2017-10-08T04:46:21.593Z,9.08
2017-10-08T04:47:21.576Z,9.13
2017-10-08T04:48:21.555Z,9.14
2017-10-08T04:49:21.530Z,9.11
2017-10-08T04:50:21.519Z,9.08
2017-10-08T04:51:21.498Z,9.14
2017-10-08T04:52:21.471Z,9.11
2017-10-08T04:53:21.450Z,9.08
2017-10-08T04:54:21.438Z,9.06
2017-10-08T04:55:21.417Z,9.16
2017-10-08T04:56:21.392Z,9.10
2017-10-08T04:57:21.368Z,9.10
2017-10-08T04:58:21.353Z,9.14
2017-10-08T04:59:21.328Z,9.08
2017-10-08T05:00:21.308Z,9.13
2017-10-08T05:01:21.290Z,9.18
2017-10-08T05:02:21.266Z,9.19
2017-10-08T05:03:21.251Z,9.26
2017-10-08T05:04:21.228Z,9.29
2017-10-08T05:05:21.205Z,9.32
2017-10-08T05:06:21.187Z,9.28
2017-10-08T05:07:21.158Z,9.39
2017-10-08T05:08:21.143Z,9.39
2017-10-08T05:09:21.124Z,9.39
2017-10-08T05:10:21.107Z,9.39
2017-10-08T05:11:21.087Z,9.43
2017-10-08T05:12:21.060Z,9.47
2017-10-08T05:13:21.042Z,9.47
2017-10-08T05:14:21.021Z,9.48
2017-10-08T05:15:20.996Z,9.54
2017-10-08T05:16:20.975Z,9.46
2017-10-08T05:17:20.958Z,9.55
2017-10-08T05:18:20.938Z,9.55
2017-10-08T05:19:20.926Z,9.58
2017-10-08T05:20:20.901Z,9.66
2017-10-08T05:21:20.875Z,9.62
2017-10-08T05:22:20.852Z,9.61
2017-10-08T05:23:20.834Z,9.69
2017-10-08T05:24:20.813Z,9.73
2017-10-08T05:25:20.789Z,9.82
2017-10-08T05:26:20.767Z,9.89
2017-10-08T05:27:20.750Z,9.91
2017-10-08T05:28:20.730Z,9.89
2017-10-08T05:29:20.711Z,9.84
2017-10-08T05:30:20.706Z,9.95
2017-10-08T05:31:20.669Z,9.97
2017-10-08T05:32:20.654Z,9.98
2017-10-08T05:33:20.620Z,10.04
2017-10-08T05:34:20.630Z,9.98
2017-10-08T05:35:20.588Z,10.02
2017-10-08T05:36:20.560Z,10.01
2017-10-08T05:37:20.543Z,10.09
2017-10-08T05:38:20.523Z,10.09
2017-10-08T05:39:20.502Z,10.12
2017-10-08T05:40:20.481Z,10.17
2017-10-08T05:41:20.461Z,10.15
2017-10-08T05:42:20.438Z,10.16
2017-10-08T05:43:20.422Z,10.19
2017-10-08T05:44:20.399Z,10.16
2017-10-08T05:45:20.384Z,10.15
2017-10-08T05:46:20.355Z,10.33
2017-10-08T05:47:20.339Z,10.31
2017-10-08T05:48:20.316Z,10.34
2017-10-08T05:49:20.301Z,10.26
2017-10-08T05:50:20.275Z,10.37
2017-10-08T05:51:20.295Z,10.41
2017-10-08T05:52:20.235Z,10.35
2017-10-08T05:53:20.217Z,10.34
2017-10-08T05:54:20.199Z,10.35
2017-10-08T05:55:20.174Z,10.42
2017-10-08T05:56:20.159Z,10.53
2017-10-08T05:57:20.823Z,10.40
2017-10-08T05:58:20.113Z,10.38
2017-10-08T05:59:20.093Z,10.40
2017-10-08T06:00:20.075Z,10.41
2017-10-08T06:01:20.055Z,10.51
2017-10-08T06:02:20.033Z,10.48
2017-10-08T06:03:20.011Z,10.51
2017-10-08T06:04:19.994Z,10.51
2017-10-08T06:05:19.966Z,10.54
2017-10-08T06:06:19.958Z,10.60
2017-10-08T06:07:19.948Z,10.60
2017-10-08T06:08:19.913Z,10.61
2017-10-08T06:09:19.890Z,10.61
2017-10-08T06:10:19.870Z,10.68
2017-10-08T06:11:19.850Z,10.67
2017-10-08T06:12:19.829Z,10.76
2017-10-08T06:13:19.805Z,10.71
2017-10-08T06:14:19.783Z,10.76
2017-10-08T06:15:19.775Z,10.76
2017-10-08T06:16:19.741Z,10.81
2017-10-08T06:17:20.326Z,10.81
2017-10-08T06:18:19.710Z,10.93
2017-10-08T06:19:19.696Z,10.94
2017-10-08T06:20:19.661Z,11.00
2017-10-08T06:21:19.650Z,10.94
2017-10-08T06:22:19.627Z,10.97
2017-10-08T06:23:19.600Z,11.04
2017-10-08T06:24:19.586Z,11.08
2017-10-08T06:25:19.564Z,11.10
2017-10-08T06:26:19.543Z,11.05
2017-10-08T06:27:19.520Z,11.05
2017-10-08T06:28:19.504Z,11.17
2017-10-08T06:29:19.479Z,11.15
2017-10-08T06:30:19.467Z,11.12
2017-10-08T06:31:19.448Z,11.08
2017-10-08T06:32:19.423Z,11.08
2017-10-08T06:33:19.411Z,11.07
2017-10-08T06:34:19.377Z,11.07
2017-10-08T06:35:19.366Z,11.17
2017-10-08T06:36:19.346Z,11.14
2017-10-08T06:37:19.327Z,11.11
2017-10-08T06:38:19.297Z,11.15
2017-10-08T06:39:19.292Z,11.14
2017-10-08T06:40:19.265Z,11.19
2017-10-08T06:41:19.246Z,11.07
2017-10-08T06:42:19.225Z,11.19
2017-10-08T06:43:19.209Z,11.18
2017-10-08T06:44:19.188Z,11.18
2017-10-08T06:45:19.178Z,11.23
2017-10-08T06:46:19.168Z,11.29
2017-10-08T06:47:19.122Z,11.26
2017-10-08T06:48:19.104Z,11.19
2017-10-08T06:49:19.083Z,11.19
2017-10-08T06:50:19.071Z,11.17
2017-10-08T06:51:19.044Z,11.29
2017-10-08T06:52:19.029Z,11.29
2017-10-08T06:53:19.012Z,11.27
2017-10-08T06:54:18.985Z,11.23
2017-10-08T06:55:18.967Z,11.33
2017-10-08T06:56:18.946Z,11.30
2017-10-08T06:57:18.924Z,11.40
2017-10-08T06:58:18.906Z,11.52
2017-10-08T06:59:18.906Z,11.47
2017-10-08T07:00:18.866Z,11.62
2017-10-08T07:01:18.865Z,11.72
2017-10-08T07:02:18.848Z,11.83
2017-10-08T07:03:18.815Z,11.95
2017-10-08T07:04:18.783Z,12.10
2017-10-08T07:05:18.766Z,12.13
2017-10-08T07:06:18.752Z,12.07
2017-10-08T07:07:18.725Z,12.10
2017-10-08T07:08:18.709Z,12.03
2017-10-08T07:09:18.689Z,11.97
2017-10-08T07:10:18.672Z,11.88
2017-10-08T07:11:18.654Z,11.84
2017-10-08T07:12:18.638Z,11.91
2017-10-08T07:13:18.614Z,11.88
2017-10-08T07:14:18.597Z,11.80
2017-10-08T07:15:18.574Z,11.87
2017-10-08T07:16:18.566Z,11.99
2017-10-08T07:17:18.878Z,11.94
2017-10-08T07:18:18.522Z,12.06
2017-10-08T07:19:18.492Z,12.04
2017-10-08T07:20:18.469Z,12.17
2017-10-08T07:21:18.455Z,12.13
2017-10-08T07:22:18.439Z,12.24
2017-10-08T07:23:18.415Z,12.28
2017-10-08T07:24:18.394Z,12.22
2017-10-08T07:25:18.384Z,12.39
2017-10-08T07:26:18.373Z,12.45
2017-10-08T07:27:18.334Z,12.60
2017-10-08T07:28:18.317Z,12.82
2017-10-08T07:29:18.312Z,12.90
2017-10-08T07:30:18.350Z,12.98
2017-10-08T07:31:18.259Z,12.98
2017-10-08T07:32:18.242Z,13.09
2017-10-08T07:33:18.225Z,13.08
2017-10-08T07:34:18.206Z,13.01
2017-10-08T07:35:18.184Z,12.97
2017-10-08T07:36:18.165Z,12.95
2017-10-08T07:37:18.162Z,12.97
2017-10-08T07:38:18.137Z,13.04
2017-10-08T07:39:18.115Z,12.95
2017-10-08T07:40:18.101Z,12.95
2017-10-08T07:41:18.073Z,12.87
2017-10-08T07:42:18.060Z,12.98
2017-10-08T07:43:18.035Z,12.90
2017-10-08T07:44:18.013Z,12.90
2017-10-08T07:45:18.023Z,12.91
2017-10-08T07:46:17.981Z,12.94
2017-10-08T07:47:18.011Z,12.95
2017-10-08T07:48:17.952Z,13.03
2017-10-08T07:49:17.923Z,13.00
2017-10-08T07:50:17.914Z,13.11
2017-10-08T07:51:17.889Z,13.28
2017-10-08T07:52:17.892Z,13.33
2017-10-08T07:53:17.851Z,13.35
2017-10-08T07:54:17.835Z,13.30
2017-10-08T07:55:17.811Z,13.38
2017-10-08T07:56:17.921Z,13.39
2017-10-08T07:57:17.786Z,13.41
2017-10-08T07:58:17.756Z,13.56
2017-10-08T07:59:17.731Z,13.72
2017-10-08T08:00:17.718Z,13.75
2017-10-08T08:01:17.700Z,13.86
2017-10-08T08:02:17.717Z,13.97
2017-10-08T08:03:17.665Z,14.11
2017-10-08T08:04:17.649Z,14.29
2017-10-08T08:05:17.633Z,14.33
2017-10-08T08:06:17.623Z,14.43
2017-10-08T08:07:17.589Z,14.53
2017-10-08T08:08:17.616Z,14.59
2017-10-08T08:09:17.550Z,14.60
2017-10-08T08:10:17.547Z,14.69
2017-10-08T08:11:17.517Z,14.66
2017-10-08T08:12:17.505Z,14.79
2017-10-08T08:13:17.487Z,14.81
2017-10-08T08:14:17.468Z,14.77
2017-10-08T08:15:17.445Z,14.94
2017-10-08T08:16:17.452Z,15.19
2017-10-08T08:17:17.452Z,15.58
2017-10-08T08:18:17.400Z,15.84
2017-10-08T08:19:17.377Z,16.26
2017-10-08T08:20:17.420Z,16.33
2017-10-08T08:21:17.358Z,16.31
2017-10-08T08:22:17.328Z,16.17
2017-10-08T08:23:17.318Z,16.13
2017-10-08T08:24:17.296Z,16.08
2017-10-08T08:25:17.275Z,15.92
2017-10-08T08:26:17.265Z,15.86
2017-10-08T08:27:17.245Z,15.80
2017-10-08T08:28:17.223Z,15.68
2017-10-08T08:29:17.238Z,15.57
2017-10-08T08:30:17.192Z,15.36
2017-10-08T08:31:17.179Z,15.29
2017-10-08T08:32:17.150Z,15.28
2017-10-08T08:33:17.152Z,15.27
2017-10-08T08:34:17.129Z,15.21
2017-10-08T08:35:17.112Z,15.18
2017-10-08T08:36:17.093Z,15.11
2017-10-08T08:37:17.123Z,14.97
2017-10-08T08:38:17.052Z,14.91
2017-10-08T08:39:17.038Z,14.85
2017-10-08T08:40:17.040Z,14.82
2017-10-08T08:41:17.003Z,14.86
2017-10-08T08:42:17.501Z,14.85
2017-10-08T08:43:16.971Z,14.89
2017-10-08T08:44:17.221Z,14.84
2017-10-08T08:45:16.937Z,14.73
2017-10-08T08:46:16.915Z,14.72
2017-10-08T08:47:16.904Z,14.73
2017-10-08T08:48:16.883Z,14.79
2017-10-08T08:49:16.870Z,14.77
2017-10-08T08:50:16.875Z,14.79
2017-10-08T08:51:16.836Z,14.81
2017-10-08T08:52:16.808Z,15.03
2017-10-08T08:53:16.789Z,15.19
2017-10-08T08:54:16.778Z,15.24
2017-10-08T08:55:16.752Z,15.29
2017-10-08T08:56:16.758Z,15.17
2017-10-08T08:57:16.733Z,15.21
2017-10-08T08:58:16.715Z,15.15
2017-10-08T08:59:16.696Z,15.19
2017-10-08T09:00:16.674Z,15.19
2017-10-08T09:01:16.655Z,15.21
2017-10-08T09:02:16.656Z,15.22
2017-10-08T09:03:16.619Z,15.17
2017-10-08T09:04:16.600Z,15.15
2017-10-08T09:05:16.581Z,14.94
2017-10-08T09:06:16.568Z,14.88
2017-10-08T09:07:16.555Z,14.77
2017-10-08T09:08:16.535Z,14.81
2017-10-08T09:09:16.529Z,14.70
2017-10-08T09:10:16.510Z,14.66
2017-10-08T09:11:16.540Z,14.65
2017-10-08T09:12:16.462Z,14.53
2017-10-08T09:13:16.494Z,14.54
2017-10-08T09:14:16.423Z,14.48
2017-10-08T09:15:16.415Z,14.53
2017-10-08T09:16:16.400Z,14.36
2017-10-08T09:17:16.372Z,14.11
2017-10-08T09:18:16.380Z,13.97
2017-10-08T09:19:16.340Z,13.90
2017-10-08T09:20:16.318Z,13.85
2017-10-08T09:21:16.322Z,13.78
2017-10-08T09:22:16.290Z,13.79
2017-10-08T09:23:16.270Z,13.92
2017-10-08T09:24:16.257Z,13.93
2017-10-08T09:25:16.232Z,14.17
2017-10-08T09:26:16.215Z,14.26
2017-10-08T09:27:16.205Z,14.50
2017-10-08T09:28:16.180Z,14.48
2017-10-08T09:29:16.189Z,14.72
2017-10-08T09:30:16.147Z,14.68
2017-10-08T09:31:16.124Z,14.77
2017-10-08T09:32:16.109Z,14.86
2017-10-08T09:33:16.088Z,15.00
2017-10-08T09:34:16.076Z,15.10
2017-10-08T09:35:16.062Z,15.24
2017-10-08T09:36:16.051Z,15.37
2017-10-08T09:37:16.025Z,15.59
2017-10-08T09:38:16.026Z,15.68
2017-10-08T09:39:15.992Z,15.80
2017-10-08T09:40:15.989Z,16.00
2017-10-08T09:41:15.952Z,16.02
2017-10-08T09:42:15.947Z,16.41
2017-10-08T09:43:15.921Z,17.12
2017-10-08T09:44:16.040Z,17.86
2017-10-08T09:45:15.889Z,17.98
2017-10-08T09:46:15.923Z,18.04
2017-10-08T09:47:15.854Z,18.11
2017-10-08T09:48:15.835Z,18.23
2017-10-08T09:49:15.815Z,18.22
2017-10-08T09:50:15.808Z,18.23
2017-10-08T09:51:15.793Z,18.00
2017-10-08T09:52:15.764Z,17.85
2017-10-08T09:53:15.791Z,17.85
2017-10-08T09:54:15.739Z,17.78
2017-10-08T09:55:15.727Z,17.71
2017-10-08T09:56:15.716Z,17.74
2017-10-08T09:57:15.693Z,17.59
2017-10-08T09:58:15.681Z,17.36
2017-10-08T09:59:15.657Z,17.26
2017-10-08T10:00:15.642Z,17.23
2017-10-08T10:01:15.636Z,17.14
2017-10-08T10:02:15.612Z,17.05
2017-10-08T10:03:15.607Z,16.93
2017-10-08T10:04:15.586Z,16.81
2017-10-08T10:05:15.577Z,16.84
2017-10-08T10:06:15.551Z,16.87
2017-10-08T10:07:15.538Z,16.96
2017-10-08T10:08:15.517Z,16.94
2017-10-08T10:09:15.501Z,16.96
2017-10-08T10:10:15.488Z,17.11
2017-10-08T10:11:15.472Z,17.30
2017-10-08T10:12:15.456Z,17.31
2017-10-08T10:13:15.435Z,17.46
2017-10-08T10:14:15.424Z,17.38
2017-10-08T10:15:15.418Z,17.29
2017-10-08T10:16:15.387Z,17.30
2017-10-08T10:17:15.372Z,17.27
2017-10-08T10:18:15.362Z,17.29
2017-10-08T10:19:15.353Z,17.34
2017-10-08T10:20:15.329Z,17.44
2017-10-08T10:21:15.310Z,17.54
2017-10-08T10:22:15.306Z,17.80
2017-10-08T10:23:15.278Z,18.00
2017-10-08T10:24:15.257Z,18.29
2017-10-08T10:25:15.254Z,18.55
2017-10-08T10:26:15.233Z,19.11
2017-10-08T10:27:15.220Z,19.70
2017-10-08T10:28:15.208Z,19.96
2017-10-08T10:29:15.194Z,20.39
2017-10-08T10:30:15.172Z,20.69
2017-10-08T10:31:15.160Z,20.88
2017-10-08T10:32:15.135Z,21.00
2017-10-08T10:33:15.125Z,21.25
2017-10-08T10:34:15.117Z,21.82
2017-10-08T10:35:15.100Z,22.50
2017-10-08T10:36:15.079Z,22.60
2017-10-08T10:37:15.072Z,22.51
2017-10-08T10:38:15.058Z,22.06
2017-10-08T10:39:15.046Z,22.51
2017-10-08T10:40:15.057Z,23.08
2017-10-08T10:41:15.027Z,23.34
2017-10-08T10:42:15.036Z,23.43
2017-10-08T10:43:15.001Z,23.13
2017-10-08T10:44:14.978Z,23.09
2017-10-08T10:45:14.965Z,22.90
2017-10-08T10:46:14.954Z,22.81
2017-10-08T10:47:14.938Z,22.80
2017-10-08T10:48:15.045Z,23.25
2017-10-08T10:49:14.947Z,23.62
2017-10-08T10:50:15.061Z,24.10
2017-10-08T10:51:14.890Z,24.30
2017-10-08T10:52:14.876Z,25.21
2017-10-08T10:53:14.861Z,26.00
2017-10-08T10:54:14.854Z,26.16
2017-10-08T10:55:14.847Z,26.02
2017-10-08T10:56:15.473Z,25.47
2017-10-08T10:57:14.828Z,24.78
2017-10-08T10:58:14.808Z,24.24
2017-10-08T10:59:14.795Z,24.16
2017-10-08T11:00:14.787Z,24.32
2017-10-08T11:01:14.830Z,24.93
2017-10-08T11:02:14.766Z,25.23
2017-10-08T11:03:14.788Z,25.60
2017-10-08T11:04:14.746Z,25.35
2017-10-08T11:05:14.742Z,25.04
2017-10-08T11:06:14.723Z,25.51
2017-10-08T11:07:14.713Z,26.41
2017-10-08T11:08:14.699Z,27.32
2017-10-08T11:09:14.694Z,28.54
2017-10-08T11:10:14.677Z,29.27
2017-10-08T11:11:14.676Z,29.75
2017-10-08T11:12:14.680Z,30.40
2017-10-08T11:13:14.661Z,31.12
2017-10-08T11:14:14.646Z,31.52
2017-10-08T11:15:14.631Z,31.51
2017-10-08T11:16:14.626Z,30.18
2017-10-08T11:17:14.610Z,28.78
2017-10-08T11:18:14.808Z,27.59
2017-10-08T11:19:14.600Z,26.97
2017-10-08T11:20:14.597Z,26.62
2017-10-08T11:21:14.579Z,26.13
2017-10-08T11:22:14.574Z,25.23
2017-10-08T11:23:14.570Z,24.57
2017-10-08T11:24:14.549Z,24.38
2017-10-08T11:25:14.546Z,24.13
2017-10-08T11:26:14.543Z,24.40
2017-10-08T11:27:14.522Z,25.28
2017-10-08T11:28:14.517Z,26.43
2017-10-08T11:29:14.511Z,26.68
2017-10-08T11:30:14.503Z,26.89
2017-10-08T11:31:14.493Z,26.96
2017-10-08T11:32:14.602Z,26.43
2017-10-08T11:33:14.476Z,26.06
2017-10-08T11:34:14.454Z,25.68
2017-10-08T11:35:14.461Z,25.07
2017-10-08T11:36:14.439Z,24.57
2017-10-08T11:37:14.429Z,24.33
2017-10-08T11:38:14.513Z,24.11
2017-10-08T11:39:14.406Z,23.61
2017-10-08T11:40:14.420Z,23.08
2017-10-08T11:41:14.478Z,22.62
2017-10-08T11:42:14.380Z,22.26
2017-10-08T11:43:14.372Z,21.79
2017-10-08T11:44:14.354Z,20.87
2017-10-08T11:45:14.340Z,20.03
2017-10-08T11:46:14.331Z,19.33
2017-10-08T11:47:14.327Z,18.75
2017-10-08T11:48:14.307Z,18.35
2017-10-08T11:49:14.303Z,17.70
2017-10-08T11:50:14.292Z,17.23
2017-10-08T11:51:14.275Z,16.83
2017-10-08T11:52:14.262Z,16.35
2017-10-08T11:53:14.269Z,16.15
2017-10-08T11:54:14.247Z,15.92
2017-10-08T11:55:14.295Z,15.75
2017-10-08T11:56:14.210Z,15.64
2017-10-08T11:57:14.193Z,15.61
2017-10-08T11:58:14.177Z,15.47
2017-10-08T11:59:14.170Z,15.40
2017-10-08T12:00:14.157Z,15.55
2017-10-08T12:01:14.140Z,15.68
2017-10-08T12:02:14.126Z,15.73
2017-10-08T12:03:14.109Z,15.83
2017-10-08T12:04:14.103Z,15.94
2017-10-08T12:05:14.080Z,15.95
2017-10-08T12:06:14.071Z,15.90
2017-10-08T12:07:14.047Z,15.90
2017-10-08T12:08:14.042Z,15.88
2017-10-08T12:09:14.050Z,16.02
2017-10-08T12:10:14.001Z,16.05
2017-10-08T12:11:13.988Z,16.57
2017-10-08T12:12:13.973Z,16.91
2017-10-08T12:13:13.957Z,17.23
2017-10-08T12:14:13.939Z,17.44
2017-10-08T12:15:13.926Z,17.74
2017-10-08T12:16:13.910Z,17.70
2017-10-08T12:17:13.901Z,17.94
2017-10-08T12:18:13.928Z,17.98
2017-10-08T12:19:13.866Z,18.25
2017-10-08T12:20:13.853Z,18.66
2017-10-08T12:21:13.845Z,19.22
2017-10-08T12:22:13.825Z,19.52
2017-10-08T12:23:13.802Z,19.54
2017-10-08T12:24:13.785Z,19.07
2017-10-08T12:25:13.775Z,18.62
2017-10-08T12:26:13.757Z,18.44
2017-10-08T12:27:13.750Z,18.58
2017-10-08T12:28:13.730Z,18.84
2017-10-08T12:29:13.714Z,19.37
2017-10-08T12:30:13.698Z,19.77
2017-10-08T12:31:13.713Z,19.62
2017-10-08T12:32:13.663Z,19.47
2017-10-08T12:33:13.665Z,19.18
2017-10-08T12:34:13.636Z,18.90
2017-10-08T12:35:13.625Z,18.63
2017-10-08T12:36:13.603Z,18.55
2017-10-08T12:37:13.590Z,18.53
2017-10-08T12:38:13.577Z,18.71
2017-10-08T12:39:13.562Z,18.80
2017-10-08T12:40:13.547Z,18.65
2017-10-08T12:41:13.528Z,18.50
2017-10-08T12:42:13.571Z,18.23
2017-10-08T12:43:13.514Z,18.08
2017-10-08T12:44:13.484Z,17.98
2017-10-08T12:45:13.467Z,17.87
2017-10-08T12:46:13.452Z,17.85
2017-10-08T12:47:13.445Z,17.70
2017-10-08T12:48:13.435Z,17.65
2017-10-08T12:49:13.400Z,17.54
2017-10-08T12:50:13.399Z,17.41
2017-10-08T12:51:13.381Z,17.24
2017-10-08T12:52:13.367Z,17.12
2017-10-08T12:53:13.354Z,17.09
2017-10-08T12:54:13.337Z,16.91
2017-10-08T12:55:13.314Z,16.87
2017-10-08T12:56:14.763Z,16.81